Terminal Aerodrome Forecast
Issued by NWS

Current Version | Previous Version | Text Only | Print | Product List | Glossary On
Versions: 1 2 3 4 5 6 7 8 9 10 11 12 13 14 15 16 17
017
FTUS46 KMFR 211145
TAFOTH
TAF
KOTH 211145Z 2112/2212 15009KT P6SM SCT002 BKN020
     FM211700 18003KT P6SM SCT025 BKN035 BKN150
     FM212100 27007KT P6SM BKN035 OVC100
     FM220400 VRB02KT 3SM BR BKN003=

USA.gov is the U.S. government's official web portal to all federal, state and local government web resources and services.